Time;durP1;ratioP1;P1;durP2;ratioP2;P2;SDS_P1;SDS_P2;PMS_P1;PMS_P2;Temp;Humidity;BMP_temperature;BMP_pressure;BME280_temperature;BME280_humidity;BME280_pressure;Samples;Min_cycle;Max_cycle;Signal;HPM_P1;HPM_P2
2024/03/07 00:01:57;;;;;;;19.67;13.17;;;;;3.10;101929.00;;;;10372275;28;20545;-82
2024/03/07 00:06:58;;;;;;;17.90;11.90;;;;;3.00;101940.00;;;;10395661;28;20772;-81
2024/03/07 00:12:00;;;;;;;16.67;12.50;;;;;2.90;101936.00;;;;10364683;28;20577;-82
2024/03/07 00:17:02;;;;;;;20.03;13.47;;;;;2.80;101939.00;;;;10383327;28;20626;-81
2024/03/07 00:22:04;;;;;;;28.33;17.80;;;;;2.80;101937.00;;;;10363404;28;20219;-82
2024/03/07 00:27:05;;;;;;;32.17;20.47;;;;;2.80;101934.00;;;;10376442;28;20230;-82
2024/03/07 00:32:07;;;;;;;33.77;20.90;;;;;2.80;101941.00;;;;10349738;28;20272;-82
2024/03/07 00:37:08;;;;;;;33.67;22.33;;;;;2.90;101937.00;;;;10345201;28;20230;-83
2024/03/07 00:42:10;;;;;;;38.50;22.70;;;;;2.90;101934.00;;;;10396673;28;20218;-83
2024/03/07 00:47:11;;;;;;;38.97;22.33;;;;;2.80;101928.00;;;;10381130;28;20843;-83
2024/03/07 00:52:13;;;;;;;31.23;21.20;;;;;2.80;101917.00;;;;10351587;28;20215;-82
2024/03/07 00:57:14;;;;;;;32.57;20.83;;;;;2.70;101919.00;;;;10359257;28;20223;-83
2024/03/07 01:02:17;;;;;;;29.87;19.50;;;;;2.60;101910.00;;;;10395438;28;20254;-79
2024/03/07 01:07:18;;;;;;;31.83;20.33;;;;;2.60;101914.00;;;;10319098;28;20224;-81
2024/03/07 01:12:22;;;;;;;35.97;20.47;;;;;2.50;101913.00;;;;10391113;28;20235;-82
2024/03/07 01:17:24;;;;;;;30.80;19.77;;;;;2.50;101914.00;;;;10360721;28;20227;-82
2024/03/07 01:22:25;;;;;;;36.43;21.77;;;;;2.40;101916.00;;;;10360329;28;20777;-82
2024/03/07 01:27:26;;;;;;;34.30;21.63;;;;;2.40;101905.00;;;;10352281;28;20227;-82
2024/03/07 01:32:28;;;;;;;37.50;22.93;;;;;2.30;101901.00;;;;10379370;28;20304;-82
2024/03/07 01:37:29;;;;;;;36.43;22.20;;;;;2.30;101897.00;;;;10348181;28;20238;-78
2024/03/07 01:42:30;;;;;;;31.40;20.87;;;;;2.20;101891.00;;;;10343962;28;20254;-76
2024/03/07 01:47:32;;;;;;;33.67;22.80;;;;;2.20;101888.00;;;;10366303;28;20233;-77
2024/03/07 01:52:33;;;;;;;33.43;21.10;;;;;2.20;101880.00;;;;10361767;28;20223;-76
2024/03/07 01:57:34;;;;;;;31.20;20.53;;;;;2.10;101889.00;;;;10366723;28;20226;-77
2024/03/07 02:02:36;;;;;;;34.90;20.83;;;;;2.10;101882.00;;;;10377580;28;20302;-78
2024/03/07 02:07:38;;;;;;;31.30;20.17;;;;;2.00;101880.00;;;;10369111;28;20230;-78
2024/03/07 02:12:39;;;;;;;38.50;22.73;;;;;1.90;101875.00;;;;10378317;28;20842;-77
2024/03/07 02:17:42;;;;;;;36.60;21.57;;;;;1.90;101869.00;;;;10364924;28;20229;-78
2024/03/07 02:22:43;;;;;;;35.53;21.03;;;;;1.80;101858.00;;;;10342526;28;20250;-77
2024/03/07 02:27:45;;;;;;;32.47;20.40;;;;;1.80;101870.00;;;;10345146;28;20296;-77
2024/03/07 02:32:51;;;;;;;37.80;22.13;;;;;1.70;101858.00;;;;10339608;28;20225;-78
2024/03/07 02:37:53;;;;;;;32.93;21.03;;;;;1.70;101859.00;;;;10356726;28;20230;-78
2024/03/07 02:42:54;;;;;;;36.87;21.83;;;;;1.70;101846.00;;;;10349307;28;20220;-77
2024/03/07 02:47:55;;;;;;;31.50;19.93;;;;;1.70;101851.00;;;;10367418;28;20229;-76
2024/03/07 02:52:57;;;;;;;33.47;21.63;;;;;1.60;101843.00;;;;10361314;28;20234;-76
2024/03/07 02:57:58;;;;;;;33.17;20.03;;;;;1.50;101841.00;;;;10381138;28;20302;-76
2024/03/07 03:03:00;;;;;;;32.97;20.87;;;;;1.40;101830.00;;;;10360168;28;20219;-76
2024/03/07 03:08:01;;;;;;;35.70;21.77;;;;;1.40;101829.00;;;;10358462;28;20230;-76
2024/03/07 03:13:03;;;;;;;35.00;22.13;;;;;1.30;101813.00;;;;10407907;28;20245;-77
2024/03/07 03:18:05;;;;;;;41.63;24.37;;;;;1.30;101814.00;;;;10349516;28;20738;-76
2024/03/07 03:23:11;;;;;;;43.13;24.93;;;;;1.30;101808.00;;;;10401641;28;20230;-76
2024/03/07 03:28:22;;;;;;;42.77;25.80;;;;;1.30;101802.00;;;;10371171;28;20231;-76
2024/03/07 03:33:23;;;;;;;49.10;29.30;;;;;1.30;101799.00;;;;10383146;28;20255;-76
2024/03/07 03:38:25;;;;;;;63.60;31.67;;;;;1.40;101800.00;;;;10380542;28;20215;-76
2024/03/07 03:43:26;;;;;;;63.57;33.10;;;;;1.40;101797.00;;;;10386643;28;20365;-76
2024/03/07 03:48:31;;;;;;;65.63;35.60;;;;;1.50;101798.00;;;;10379651;28;20261;-76
2024/03/07 03:53:32;;;;;;;80.97;39.07;;;;;1.50;101790.00;;;;10402391;28;20623;-76
2024/03/07 03:58:33;;;;;;;68.30;37.43;;;;;1.60;101785.00;;;;10398261;28;20280;-78
2024/03/07 04:03:35;;;;;;;73.73;35.87;;;;;1.60;101791.00;;;;10382530;28;20661;-77
2024/03/07 04:08:36;;;;;;;62.87;33.97;;;;;1.60;101789.00;;;;10366716;28;20917;-77
2024/03/07 04:13:38;;;;;;;63.37;32.90;;;;;1.50;101780.00;;;;10380115;28;20222;-78
2024/03/07 04:18:39;;;;;;;67.00;32.83;;;;;1.50;101788.00;;;;10380536;28;20222;-77
2024/03/07 04:23:40;;;;;;;62.80;34.23;;;;;1.50;101775.00;;;;10360727;28;20228;-79
2024/03/07 04:28:42;;;;;;;70.57;34.50;;;;;1.50;101785.00;;;;10368995;28;20226;-80
2024/03/07 04:33:43;;;;;;;67.37;35.10;;;;;1.50;101771.00;;;;10345345;28;20261;-77
2024/03/07 04:38:45;;;;;;;65.97;35.27;;;;;1.50;101766.00;;;;10344654;28;20226;-79
2024/03/07 04:43:46;;;;;;;68.67;33.53;;;;;1.40;101768.00;;;;10365229;28;20277;-78
2024/03/07 04:48:48;;;;;;;66.43;34.93;;;;;1.30;101768.00;;;;10360493;28;20236;-78
2024/03/07 04:53:49;;;;;;;66.83;33.97;;;;;1.30;101764.00;;;;10376041;28;20235;-78
2024/03/07 04:58:50;;;;;;;79.60;38.77;;;;;1.30;101771.00;;;;10351633;28;20905;-79
2024/03/07 05:03:52;;;;;;;87.00;41.70;;;;;1.30;101765.00;;;;10382914;28;20214;-79
2024/03/07 05:08:53;;;;;;;83.40;42.20;;;;;1.30;101774.00;;;;10354682;28;20795;-76
2024/03/07 05:13:54;;;;;;;90.27;39.10;;;;;1.40;101768.00;;;;10330920;28;20214;-75
2024/03/07 05:18:59;;;;;;;95.30;43.37;;;;;1.60;101770.00;;;;10364728;28;20226;-77
2024/03/07 05:24:02;;;;;;;105.73;45.43;;;;;1.70;101768.00;;;;10344448;28;20265;-75
2024/03/07 05:29:05;;;;;;;113.83;48.33;;;;;2.00;101778.00;;;;10369336;28;20218;-75
2024/03/07 05:34:09;;;;;;;117.40;50.80;;;;;2.20;101786.00;;;;10349532;28;20269;-75
2024/03/07 05:39:11;;;;;;;115.07;49.23;;;;;2.40;101770.00;;;;10363851;28;20223;-76
2024/03/07 05:44:12;;;;;;;118.67;50.83;;;;;2.60;101775.00;;;;10359811;28;20246;-75
2024/03/07 05:49:14;;;;;;;147.47;56.37;;;;;2.70;101777.00;;;;10379016;28;20250;-75
2024/03/07 05:54:15;;;;;;;171.77;59.13;;;;;2.80;101774.00;;;;10388009;28;20898;-75
2024/03/07 05:59:16;;;;;;;204.80;58.17;;;;;2.90;101772.00;;;;10374022;28;20218;-78
2024/03/07 06:04:18;;;;;;;242.03;62.90;;;;;3.00;101778.00;;;;10350052;28;20265;-75
2024/03/07 06:09:22;;;;;;;242.10;61.90;;;;;3.10;101767.00;;;;10380550;28;20218;-80
2024/03/07 06:14:24;;;;;;;293.67;68.43;;;;;3.20;101761.00;;;;10376904;28;20230;-78
2024/03/07 06:19:25;;;;;;;303.03;69.80;;;;;3.20;101758.00;;;;10379217;28;20291;-75
2024/03/07 06:24:30;;;;;;;318.10;68.67;;;;;3.20;101762.00;;;;10352978;28;20755;-76
2024/03/07 06:29:31;;;;;;;237.07;63.03;;;;;3.30;101754.00;;;;10355756;28;20226;-76
2024/03/07 06:34:32;;;;;;;264.87;65.60;;;;;3.30;101744.00;;;;10330713;28;20772;-75
2024/03/07 06:39:34;;;;;;;332.93;69.43;;;;;3.40;101737.00;;;;10353182;28;20321;-76
2024/03/07 06:44:36;;;;;;;417.33;80.77;;;;;3.40;101730.00;;;;10353207;28;20305;-75
2024/03/07 06:49:37;;;;;;;381.27;80.07;;;;;3.50;101732.00;;;;10370540;28;20584;-77
2024/03/07 06:54:38;;;;;;;339.67;76.20;;;;;3.60;101726.00;;;;10356854;28;20297;-75
2024/03/07 06:59:39;;;;;;;319.87;73.57;;;;;3.70;101731.00;;;;10357594;28;20245;-75
2024/03/07 07:04:47;;;;;;;242.00;62.57;;;;;3.70;101733.00;;;;10373334;28;20218;-76
2024/03/07 07:09:51;;;;;;;357.37;76.57;;;;;3.70;101732.00;;;;10361978;28;20254;-77
2024/03/07 07:14:52;;;;;;;262.00;71.83;;;;;3.80;101743.00;;;;10365634;28;20223;-77
2024/03/07 07:19:55;;;;;;;288.20;73.23;;;;;3.80;101739.00;;;;10357386;28;20246;-76
2024/03/07 07:24:56;;;;;;;277.50;74.73;;;;;3.90;101731.00;;;;10354013;28;20218;-77
2024/03/07 07:29:57;;;;;;;323.37;78.17;;;;;4.00;101741.00;;;;10337707;28;20705;-76
2024/03/07 07:34:58;;;;;;;216.87;62.03;;;;;4.10;101738.00;;;;10335741;28;20234;-77
2024/03/07 07:40:00;;;;;;;215.30;65.70;;;;;4.20;101738.00;;;;10337935;28;20287;-77
2024/03/07 07:45:01;;;;;;;263.03;71.57;;;;;4.40;101730.00;;;;10334529;28;20227;-78
2024/03/07 07:50:06;;;;;;;214.33;65.67;;;;;4.50;101731.00;;;;10338925;28;20234;-78
2024/03/07 07:55:14;;;;;;;258.43;65.97;;;;;4.60;101729.00;;;;10352142;28;20250;-79
2024/03/07 08:00:23;;;;;;;200.27;62.87;;;;;4.80;101721.00;;;;10382436;28;20238;-78
2024/03/07 08:05:27;;;;;;;184.30;60.23;;;;;4.90;101707.00;;;;10366384;28;20245;-77
2024/03/07 08:10:28;;;;;;;161.57;56.20;;;;;4.90;101719.00;;;;10355880;28;20231;-77
2024/03/07 08:15:31;;;;;;;182.23;60.97;;;;;4.80;101716.00;;;;10398548;28;20231;-77
2024/03/07 08:20:32;;;;;;;212.03;67.27;;;;;4.90;101705.00;;;;10385492;28;20222;-77
2024/03/07 08:25:33;;;;;;;193.80;61.83;;;;;5.10;101704.00;;;;10399471;28;20226;-77
2024/03/07 08:30:34;;;;;;;185.23;59.37;;;;;5.50;101703.00;;;;10378914;28;20361;-78
2024/03/07 08:35:36;;;;;;;209.23;65.80;;;;;5.60;101709.00;;;;10359186;28;20309;-77
2024/03/07 08:40:37;;;;;;;190.07;62.87;;;;;5.60;101709.00;;;;10384156;28;20223;-78
2024/03/07 08:45:38;;;;;;;203.83;64.70;;;;;6.00;101711.00;;;;10379072;28;20235;-78
2024/03/07 08:50:40;;;;;;;192.30;63.77;;;;;6.10;101703.00;;;;10367062;28;20226;-78
2024/03/07 08:55:42;;;;;;;176.13;61.13;;;;;6.20;101695.00;;;;10359238;28;20584;-77
2024/03/07 09:00:45;;;;;;;191.77;64.40;;;;;6.30;101701.00;;;;10353416;28;20967;-78
2024/03/07 09:05:46;;;;;;;184.17;65.07;;;;;6.60;101697.00;;;;10397594;28;20224;-76
2024/03/07 09:10:48;;;;;;;171.30;61.67;;;;;6.80;101696.00;;;;10381680;28;20234;-78
2024/03/07 09:15:49;;;;;;;163.90;61.47;;;;;7.10;101685.00;;;;10390075;28;20581;-77
2024/03/07 09:20:51;;;;;;;147.40;62.10;;;;;7.20;101692.00;;;;10371350;28;20902;-77
2024/03/07 09:25:52;;;;;;;156.47;60.10;;;;;7.30;101690.00;;;;10373695;28;21022;-77
2024/03/07 09:30:53;;;;;;;208.77;68.53;;;;;8.30;101679.00;;;;10377515;28;20219;-78
2024/03/07 09:35:54;;;;;;;189.67;65.87;;;;;9.80;101664.00;;;;10385090;28;20245;-78
2024/03/07 09:40:55;;;;;;;142.80;61.87;;;;;10.70;101661.00;;;;10374947;28;20236;-79
2024/03/07 09:45:57;;;;;;;94.47;50.23;;;;;10.00;101642.00;;;;10362143;28;20282;-77
2024/03/07 09:51:01;;;;;;;86.83;48.30;;;;;9.90;101636.00;;;;10338222;28;20256;-79
2024/03/07 09:56:06;;;;;;;85.57;48.40;;;;;10.20;101636.00;;;;10342663;28;20660;-77
2024/03/07 10:01:09;;;;;;;75.23;46.23;;;;;11.20;101632.00;;;;10374915;28;20321;-76
2024/03/07 10:06:11;;;;;;;71.67;42.37;;;;;11.70;101622.00;;;;10358201;28;20784;-76
2024/03/07 10:11:14;;;;;;;63.90;40.67;;;;;11.60;101616.00;;;;10375607;28;20218;-76
2024/03/07 10:16:18;;;;;;;67.97;41.70;;;;;11.30;101604.00;;;;10373987;28;20762;-74
2024/03/07 10:21:24;;;;;;;65.90;40.77;;;;;11.00;101607.00;;;;10380124;28;20242;-75
2024/03/07 10:26:26;;;;;;;65.57;38.77;;;;;10.70;101597.00;;;;10403754;28;20281;-76
2024/03/07 10:31:31;;;;;;;65.63;39.33;;;;;12.00;101593.00;;;;10374998;28;20273;-75
2024/03/07 10:36:33;;;;;;;55.83;37.53;;;;;12.70;101585.00;;;;10366212;28;20215;-76
2024/03/07 10:41:36;;;;;;;53.20;36.40;;;;;13.20;101580.00;;;;10378825;28;20241;-76
2024/03/07 10:46:38;;;;;;;54.00;35.17;;;;;12.50;101575.00;;;;10385268;28;20350;-76
2024/03/07 10:51:45;;;;;;;51.93;34.40;;;;;13.00;101569.00;;;;10380516;28;20222;-75
2024/03/07 10:56:58;;;;;;;49.50;34.40;;;;;13.80;101559.00;;;;10361908;28;20314;-75
2024/03/07 11:02:19;;;;;;;48.85;33.95;;;;;14.00;101555.00;;;;10367148;28;20799;-83
2024/03/07 11:07:22;;;;;;;48.30;32.90;;;;;14.00;101549.00;;;;10374991;28;20222;-80
2024/03/07 11:12:27;;;;;;;42.40;30.15;;;;;14.40;101536.00;;;;10394372;28;20732;-82
2024/03/07 11:17:30;;;;;;;47.38;31.77;;;;;14.30;101528.00;;;;10373376;28;20238;-84
2024/03/07 11:22:34;;;;;;;40.50;30.13;;;;;14.40;101511.00;;;;10376102;28;20232;-82
2024/03/07 11:27:38;;;;;;;42.58;30.67;;;;;14.00;101515.00;;;;10366801;28;20225;-82
2024/03/07 11:32:41;;;;;;;39.65;28.23;;;;;13.40;101512.00;;;;10415294;28;20698;-82
2024/03/07 11:37:47;;;;;;;39.80;26.73;;;;;13.20;101509.00;;;;10384176;28;20729;-83
2024/03/07 11:42:50;;;;;;;39.85;27.73;;;;;13.30;101502.00;;;;10419043;28;20222;-83
2024/03/07 11:48:15;;;;;;;35.63;26.70;;;;;12.70;101494.00;;;;10377935;28;20228;-82
2024/03/07 11:53:16;;;;;;;36.90;25.97;;;;;12.50;101476.00;;;;10386344;28;20296;-81
2024/03/07 11:58:21;;;;;;;35.70;26.58;;;;;14.80;101464.00;;;;10385539;28;20218;-81
2024/03/07 12:03:23;;;;;;;37.00;28.48;;;;;14.10;101472.00;;;;10392285;28;20242;-80
2024/03/07 12:08:26;;;;;;;40.38;27.90;;;;;13.90;101468.00;;;;10365224;28;20265;-81
2024/03/07 12:13:27;;;;;;;39.37;28.80;;;;;13.10;101471.00;;;;10357230;28;20329;-81
2024/03/07 12:18:29;;;;;;;39.17;29.23;;;;;13.00;101462.00;;;;10374665;28;20226;-81
2024/03/07 12:23:31;;;;;;;31.35;24.90;;;;;13.30;101459.00;;;;10360110;28;20277;-80
2024/03/07 12:28:38;;;;;;;35.50;28.47;;;;;12.20;101454.00;;;;10372579;28;20218;-80
2024/03/07 12:33:42;;;;;;;43.07;29.50;;;;;12.20;101448.00;;;;10363517;28;20286;-81
2024/03/07 12:38:43;;;;;;;36.83;27.37;;;;;12.60;101441.00;;;;10384168;28;20711;-81
2024/03/07 12:43:45;;;;;;;37.80;29.70;;;;;13.00;101429.00;;;;10366397;28;20221;-81
2024/03/07 12:48:46;;;;;;;36.05;27.52;;;;;13.30;101431.00;;;;10392726;28;21764;-80
2024/03/07 12:53:49;;;;;;;32.95;27.17;;;;;14.30;101411.00;;;;10364601;28;20235;-80
2024/03/07 12:58:51;;;;;;;36.08;27.98;;;;;14.20;101413.00;;;;10344968;28;20853;-80
2024/03/07 13:03:53;;;;;;;33.53;26.80;;;;;13.30;101407.00;;;;10374625;28;20233;-80
2024/03/07 13:08:54;;;;;;;36.55;26.95;;;;;13.60;101389.00;;;;10383529;28;20217;-81
2024/03/07 13:13:59;;;;;;;32.45;26.92;;;;;14.00;101388.00;;;;10383663;28;20226;-81
2024/03/07 13:19:04;;;;;;;34.67;27.63;;;;;14.50;101385.00;;;;10372383;28;20222;-82
2024/03/07 13:24:06;;;;;;;36.83;28.77;;;;;14.60;101371.00;;;;10366519;28;20237;-82
2024/03/07 13:29:09;;;;;;;34.10;26.83;;;;;13.40;101388.00;;;;10384774;28;20227;-83
2024/03/07 13:34:14;;;;;;;31.90;24.48;;;;;13.10;101377.00;;;;10364951;28;20296;-82
2024/03/07 13:39:16;;;;;;;36.53;26.30;;;;;13.20;101367.00;;;;10375445;28;20211;-82
2024/03/07 13:44:19;;;;;;;33.30;23.55;;;;;13.80;101355.00;;;;10384725;28;20229;-82
2024/03/07 13:49:23;;;;;;;25.60;20.10;;;;;13.70;101351.00;;;;10369539;28;20231;-82
2024/03/07 13:54:34;;;;;;;29.10;20.93;;;;;14.10;101338.00;;;;10383415;28;20762;-82
2024/03/07 13:59:53;;;;;;;26.83;21.00;;;;;15.60;101279.00;;;;10364316;28;20222;-81
2024/03/07 14:05:12;;;;;;;25.00;21.03;;;;;16.10;101273.00;;;;10386604;28;20225;-81
2024/03/07 14:10:32;;;;;;;28.03;22.50;;;;;17.00;101253.00;;;;10381784;28;20322;-82
2024/03/07 14:16:11;;;;;;;31.67;24.50;;;;;17.30;101263.00;;;;10365428;28;20211;-81
2024/03/07 14:21:48;;;;;;;31.33;26.52;;;;;15.40;101270.00;;;;10377474;28;20852;-81
2024/03/07 14:27:10;;;;;;;31.97;25.70;;;;;14.60;101261.00;;;;10379066;28;20299;-84
2024/03/07 14:32:12;;;;;;;26.00;21.33;;;;;15.30;101259.00;;;;10371764;28;20230;-82
2024/03/07 14:37:23;;;;;;;27.93;22.97;;;;;15.40;101228.00;;;;10406018;28;20214;-81
2024/03/07 14:42:25;;;;;;;27.97;22.77;;;;;14.90;101248.00;;;;10369430;28;20338;-80
2024/03/07 14:47:26;;;;;;;24.90;21.43;;;;;15.70;101195.00;;;;10370088;28;20226;-81
2024/03/07 14:52:29;;;;;;;28.83;22.60;;;;;14.40;101252.00;;;;10375472;28;20770;-79
2024/03/07 14:57:30;;;;;;;28.77;22.77;;;;;15.10;101276.00;;;;10342152;28;20252;-80
2024/03/07 15:02:32;;;;;;;28.80;23.63;;;;;14.70;101259.00;;;;10380632;28;20577;-81
2024/03/07 15:07:33;;;;;;;28.27;22.27;;;;;14.20;101245.00;;;;10370596;28;20600;-81
2024/03/07 15:12:34;;;;;;;29.37;21.57;;;;;13.60;101252.00;;;;10370891;28;20289;-80
2024/03/07 15:17:35;;;;;;;27.43;21.27;;;;;12.30;101249.00;;;;10382386;28;20234;-80
2024/03/07 15:22:37;;;;;;;25.90;20.90;;;;;12.20;101246.00;;;;10367592;28;20854;-80
2024/03/07 15:27:41;;;;;;;27.47;18.60;;;;;12.40;101241.00;;;;10374766;28;20226;-81
2024/03/07 15:32:44;;;;;;;26.37;19.07;;;;;12.10;101235.00;;;;10349966;28;20218;-81
2024/03/07 15:37:46;;;;;;;28.97;19.30;;;;;11.60;101234.00;;;;10360520;28;20214;-80
2024/03/07 15:42:53;;;;;;;27.50;19.63;;;;;11.70;101211.00;;;;10361864;28;20248;-78
2024/03/07 15:47:57;;;;;;;28.17;18.93;;;;;11.80;101215.00;;;;10393172;28;20233;-79
2024/03/07 15:53:01;;;;;;;29.67;18.73;;;;;11.20;101205.00;;;;10377449;28;20301;-80
2024/03/07 15:58:06;;;;;;;25.23;17.80;;;;;10.80;101197.00;;;;10349254;28;20222;-79
2024/03/07 16:03:07;;;;;;;27.87;17.87;;;;;10.70;101190.00;;;;10395412;28;20229;-81
2024/03/07 16:08:10;;;;;;;26.03;17.73;;;;;10.60;101178.00;;;;10363234;28;20233;-82
2024/03/07 16:13:14;;;;;;;24.13;16.97;;;;;10.70;101172.00;;;;10378488;28;20246;-79
2024/03/07 16:18:15;;;;;;;27.60;18.97;;;;;10.40;101167.00;;;;10378759;28;20719;-80
2024/03/07 16:23:18;;;;;;;23.33;16.73;;;;;10.30;101162.00;;;;10376937;28;20237;-79
2024/03/07 16:28:26;;;;;;;26.93;17.40;;;;;10.20;101156.00;;;;10378048;28;20780;-79
2024/03/07 16:33:28;;;;;;;24.93;17.63;;;;;10.10;101146.00;;;;10357139;28;20237;-79
2024/03/07 16:38:29;;;;;;;22.80;16.07;;;;;10.00;101144.00;;;;10388008;28;20296;-79
2024/03/07 16:43:30;;;;;;;22.77;16.87;;;;;9.90;101150.00;;;;10390602;28;20258;-79
2024/03/07 16:48:31;;;;;;;19.50;15.17;;;;;9.90;101143.00;;;;10395282;28;20230;-77
2024/03/07 16:53:33;;;;;;;22.10;14.33;;;;;9.80;101143.00;;;;10391913;28;20961;-77
2024/03/07 16:58:36;;;;;;;20.30;14.17;;;;;9.70;101149.00;;;;10360427;28;20223;-78
2024/03/07 17:03:38;;;;;;;18.20;14.07;;;;;9.50;101135.00;;;;10359573;28;20230;-80
2024/03/07 17:08:39;;;;;;;19.23;12.70;;;;;9.40;101136.00;;;;10360729;28;20226;-78
2024/03/07 17:13:41;;;;;;;23.93;13.17;;;;;9.30;101133.00;;;;10392906;28;20215;-78
2024/03/07 17:18:42;;;;;;;15.63;12.10;;;;;9.10;101142.00;;;;10365190;28;20217;-78
2024/03/07 17:23:44;;;;;;;19.23;12.07;;;;;9.00;101145.00;;;;10359249;28;20233;-78
2024/03/07 17:28:45;;;;;;;18.57;13.10;;;;;8.90;101149.00;;;;10389308;28;20222;-77
2024/03/07 17:33:46;;;;;;;18.30;14.00;;;;;8.70;101147.00;;;;10356292;28;20238;-78
2024/03/07 17:38:47;;;;;;;20.30;14.20;;;;;8.60;101144.00;;;;10381202;28;20219;-79
2024/03/07 17:43:49;;;;;;;20.43;14.10;;;;;8.50;101149.00;;;;10362864;28;20276;-77
2024/03/07 17:48:51;;;;;;;22.40;15.87;;;;;8.30;101152.00;;;;10373989;28;20846;-78
2024/03/07 17:53:55;;;;;;;22.20;15.77;;;;;8.20;101153.00;;;;10369197;28;21673;-77
2024/03/07 17:58:56;;;;;;;22.23;15.33;;;;;8.10;101147.00;;;;10382084;28;20222;-79
2024/03/07 18:03:57;;;;;;;18.53;15.00;;;;;8.10;101153.00;;;;10360834;28;20226;-79
2024/03/07 18:08:58;;;;;;;22.13;14.63;;;;;8.00;101153.00;;;;10368609;28;20893;-80
2024/03/07 18:14:05;;;;;;;20.80;15.37;;;;;7.90;101156.00;;;;10370752;28;20275;-79
2024/03/07 18:19:09;;;;;;;21.43;14.70;;;;;7.80;101157.00;;;;10377461;28;20261;-79
2024/03/07 18:24:11;;;;;;;21.43;14.93;;;;;7.70;101152.00;;;;10362075;28;20219;-79
2024/03/07 18:29:12;;;;;;;18.97;14.27;;;;;7.60;101154.00;;;;10344872;28;20697;-79
2024/03/07 18:34:14;;;;;;;23.77;14.57;;;;;7.50;101150.00;;;;10325282;28;20750;-79
2024/03/07 18:39:22;;;;;;;23.60;14.73;;;;;7.40;101149.00;;;;10361610;28;20639;-79
2024/03/07 18:44:24;;;;;;;24.47;15.93;;;;;7.20;101155.00;;;;10353272;28;20222;-79
2024/03/07 18:49:25;;;;;;;21.30;15.53;;;;;7.10;101151.00;;;;10370591;28;20228;-79
2024/03/07 18:54:26;;;;;;;23.93;16.53;;;;;7.10;101152.00;;;;10360198;28;20314;-79
2024/03/07 18:59:27;;;;;;;25.67;16.67;;;;;7.00;101155.00;;;;10352028;28;20298;-80
2024/03/07 19:04:29;;;;;;;25.70;16.80;;;;;7.00;101160.00;;;;10372915;28;20832;-79
2024/03/07 19:09:32;;;;;;;28.77;18.37;;;;;6.90;101155.00;;;;10375343;28;20235;-76
2024/03/07 19:14:34;;;;;;;25.60;16.87;;;;;6.70;101159.00;;;;10356879;28;20684;-76
2024/03/07 19:19:35;;;;;;;27.97;17.37;;;;;6.60;101161.00;;;;10358424;28;20901;-77
2024/03/07 19:24:39;;;;;;;27.03;17.50;;;;;6.60;101158.00;;;;10388186;28;20303;-77
2024/03/07 19:29:45;;;;;;;26.30;19.03;;;;;6.50;101159.00;;;;10396758;28;20230;-78
2024/03/07 19:34:46;;;;;;;30.10;17.97;;;;;6.40;101164.00;;;;10349612;28;20227;-75
2024/03/07 19:39:47;;;;;;;26.10;18.07;;;;;6.30;101161.00;;;;10367747;28;20703;-75
2024/03/07 19:44:48;;;;;;;28.83;18.77;;;;;6.20;101169.00;;;;10379614;28;20227;-76
2024/03/07 19:49:49;;;;;;;29.07;18.27;;;;;6.20;101169.00;;;;10368816;28;20279;-76
2024/03/07 19:54:51;;;;;;;29.97;19.03;;;;;6.00;101164.00;;;;10361617;28;20215;-76
2024/03/07 19:59:52;;;;;;;29.13;19.47;;;;;5.90;101162.00;;;;10372039;28;20226;-76
2024/03/07 20:04:53;;;;;;;30.30;18.80;;;;;5.80;101163.00;;;;10361075;28;20218;-75
2024/03/07 20:09:54;;;;;;;30.10;19.63;;;;;5.80;101170.00;;;;10383240;28;20222;-77
2024/03/07 20:14:55;;;;;;;27.87;17.70;;;;;5.70;101165.00;;;;10347157;28;20652;-80
2024/03/07 20:19:57;;;;;;;29.73;19.03;;;;;5.70;101169.00;;;;10348365;28;20257;-83
2024/03/07 20:24:58;;;;;;;28.00;18.13;;;;;5.70;101173.00;;;;10375384;28;20230;-84
2024/03/07 20:30:00;;;;;;;27.97;18.37;;;;;5.60;101169.00;;;;10383541;28;20267;-82
2024/03/07 20:35:07;;;;;;;26.27;17.43;;;;;5.60;101157.00;;;;10364280;28;20936;-83
2024/03/07 20:40:09;;;;;;;26.53;17.50;;;;;5.50;101164.00;;;;10385411;28;20209;-81
2024/03/07 20:45:14;;;;;;;24.57;15.93;;;;;5.50;101155.00;;;;10335368;28;20284;-83
2024/03/07 20:50:17;;;;;;;24.53;15.60;;;;;5.40;101159.00;;;;10371571;28;20280;-83
2024/03/07 20:55:19;;;;;;;25.63;15.67;;;;;5.40;101162.00;;;;10388441;28;20242;-84
2024/03/07 21:00:25;;;;;;;25.83;16.40;;;;;5.30;101157.00;;;;10366896;28;20675;-84
2024/03/07 21:05:27;;;;;;;22.23;15.13;;;;;5.30;101152.00;;;;10370517;28;20218;-83
2024/03/07 21:10:29;;;;;;;27.07;15.57;;;;;5.20;101150.00;;;;10398198;28;20242;-81
2024/03/07 21:15:30;;;;;;;23.27;13.57;;;;;5.20;101146.00;;;;10381869;28;20234;-83
2024/03/07 21:20:31;;;;;;;22.50;14.97;;;;;5.20;101145.00;;;;10379164;28;20521;-84
2024/03/07 21:25:35;;;;;;;20.50;13.73;;;;;5.20;101147.00;;;;10413064;28;20278;-80
2024/03/07 21:30:36;;;;;;;22.33;14.40;;;;;5.10;101136.00;;;;10387049;28;20233;-79
2024/03/07 21:35:37;;;;;;;22.20;14.00;;;;;5.10;101132.00;;;;10357632;28;20253;-79
2024/03/07 21:40:38;;;;;;;23.70;14.97;;;;;5.00;101138.00;;;;10374209;28;20253;-79
2024/03/07 21:45:40;;;;;;;22.40;15.47;;;;;4.90;101131.00;;;;10361699;28;20285;-79
2024/03/07 21:50:42;;;;;;;23.93;15.33;;;;;4.90;101124.00;;;;10395822;28;20760;-80
2024/03/07 21:55:44;;;;;;;22.67;14.67;;;;;4.80;101126.00;;;;10365119;28;20242;-79
2024/03/07 22:00:46;;;;;;;24.40;15.10;;;;;4.70;101126.00;;;;10375358;28;20233;-78
2024/03/07 22:05:47;;;;;;;24.10;14.40;;;;;4.60;101116.00;;;;10392156;28;20215;-79
2024/03/07 22:10:48;;;;;;;24.63;15.10;;;;;4.50;101121.00;;;;10372249;28;20310;-79
2024/03/07 22:15:50;;;;;;;25.30;15.97;;;;;4.40;101119.00;;;;10373546;28;20228;-79
2024/03/07 22:20:51;;;;;;;27.27;15.57;;;;;4.20;101116.00;;;;10390741;28;20233;-79
2024/03/07 22:25:52;;;;;;;26.10;16.83;;;;;4.10;101110.00;;;;10379251;28;20306;-79
2024/03/07 22:30:53;;;;;;;29.10;17.50;;;;;3.90;101106.00;;;;10396013;28;20234;-79
2024/03/07 22:35:54;;;;;;;26.27;16.53;;;;;3.80;101094.00;;;;10381043;28;20218;-79
2024/03/07 22:40:56;;;;;;;27.50;16.70;;;;;3.80;101093.00;;;;10354216;28;20219;-78
2024/03/07 22:45:57;;;;;;;29.33;17.37;;;;;3.80;101093.00;;;;10390178;28;20350;-78
2024/03/07 22:50:58;;;;;;;28.07;17.20;;;;;3.80;101076.00;;;;10361111;28;20223;-78
2024/03/07 22:56:01;;;;;;;27.67;16.37;;;;;3.80;101082.00;;;;10380072;28;20300;-78
2024/03/07 23:01:04;;;;;;;27.60;15.93;;;;;3.80;101071.00;;;;10375387;28;20222;-78
2024/03/07 23:06:06;;;;;;;28.20;16.70;;;;;3.80;101069.00;;;;10325494;28;20368;-78
2024/03/07 23:11:07;;;;;;;29.60;16.80;;;;;3.80;101066.00;;;;10360268;28;20693;-78
2024/03/07 23:16:09;;;;;;;28.17;15.47;;;;;3.80;101068.00;;;;10353377;28;20221;-78
2024/03/07 23:21:10;;;;;;;24.70;16.63;;;;;3.70;101064.00;;;;10353562;28;20218;-78
2024/03/07 23:26:11;;;;;;;31.17;17.10;;;;;3.70;101060.00;;;;10336056;28;20428;-78
2024/03/07 23:31:12;;;;;;;26.77;15.27;;;;;3.70;101048.00;;;;10351342;28;20227;-78
2024/03/07 23:36:13;;;;;;;25.73;15.47;;;;;3.70;101051.00;;;;10344355;28;20230;-78
2024/03/07 23:41:19;;;;;;;27.40;15.13;;;;;3.60;101038.00;;;;10368450;28;20253;-78
2024/03/07 23:46:20;;;;;;;28.23;15.93;;;;;3.50;101039.00;;;;10359168;28;20242;-78
